AirNav   Pilot Hours Calculator
 
 1082 users online  

MI85 Community Health Center of Branch County Heliport
Coldwater, Michigan, USA

GOING TO COLDWATER?


FAA INFORMATION EFFECTIVE 07 NOVEMBER 2019

Location

FAA Identifier: MI85
Lat/Long: 41-56-16.5800N 084-59-21.1500W
41-56.276333N 084-59.352500W
41.9379389,-84.9892083
(estimated)
Elevation: 959 ft. / 292 m (estimated)
Variation: 04W (1990)
From city: 1 mile N of COLDWATER, MI
Time zone: UTC -5 (UTC -4 during Daylight Saving Time)
Zip code: 49036

Heliport Operations

Heliport use: Private use, MEDICAL USE.
Activation date: 05/1992
Control tower: no
ARTCC: CHICAGO CENTER
FSS: LANSING FLIGHT SERVICE STATION
Attendance: CONTINUOUS
Wind indicator: yes
Segmented circle: no
Lights: SS-SR
Beacon: white-green-yellow (heliport)
Operates sunset to sunrise.

Heliport Communications

WX AWOS-3 at OEB (2.8 nm W): 118.125 (517-279-1810)
WX AWOS-3 at JYM (18 nm E): 121.025 (517-437-5638)
WX AWOS-3 at ANQ (18 nm S): 118.175 (260-668-5630)
WX AWOS-3 at RMY (19 nm N): 120.025 (269-781-9070)

Nearby radio navigation aids

VOR radial/distance  VOR name  Freq  Var
LFDr238/12.5LITCHFIELD VOR/DME111.2005W
JXNr236/30.5JACKSON VOR/DME109.6005W
AZOr127/30.9KALAMAZOO VOR/DME109.0001W

 
NDB name  Hdg/Dist  Freq  Var  ID
STURGIS073/21.238204WIRS .. .-. ...

Heliport Services

Runway Information

Helipad H1

Dimensions: 100 x 100 ft. / 30 x 30 m
Surface: concrete
Runway edge lights: PERI
Latitude: 41-56.276333N
Longitude: 084-59.352500W
Elevation: 959.0 ft.
Traffic pattern: leftleft

Heliport Ownership and Management from official FAA records

Ownership: Privately-owned
Owner: COLDWATER COMMUNITY HOSPITAL
274 EAST CHICAGO
COLDWATER, MI 49036-2088
Phone (517) 279-5400
Manager: BILL EARL
274 EAST CHICAGO
COLDWATER, MI 49036
Phone 517-279-5492

Additional Remarks

FOR CD CTC CHICAGO ARTCC AT 630-906-8921.

Instrument Procedures

There are no published instrument procedures at MI85.

Some nearby airports with instrument procedures:

KOEB - Branch County Memorial Airport (3 nm W)
KJYM - Hillsdale Municipal Airport (18 nm E)
KANQ - Tri-State Steuben County Airport (18 nm S)
KRMY - Brooks Field Airport (19 nm N)
KIRS - Kirsch Municipal Airport (21 nm W)
 
Loc | Ops | Rwys | IFR | FBO | Links
Com | Nav | Svcs | Stats | Notes
Area around MI85 (Community Health Center of Branch County Heliport)
 
Road maps at: MapQuest Bing Google
 
Aerial photo
No photo
 
Sectional chart

 
Airport distance calculator
Flying to Community Health Center of Branch County Heliport? Find the distance to fly.

From to MI85

Sunrise and sunset
Times for 21-Nov-2019
 Local
(UTC-5)
 Zulu
(UTC)
Morning civil twilight07:0812:08
Sunrise07:3812:38
Sunset17:1422:14
Evening civil twilight17:4422:44

Current date and time
Zulu (UTC)  21-Nov-2019 14:04:38
Local (UTC-5)  21-Nov-2019 09:04:38
 
METAR
KOEB 
2nm SW 
211355Z AUTO 17008KT 7SM -RA SCT070 OVC085 06/03 A2996 RMK AO2 T00610030
KRMY 
18nm N 
211355Z AUTO 15008KT 7SM BKN090 OVC110 06/04 A2994 RMK AO2 T00600036
KJYM 
18nm E 
211356Z AUTO 16008KT 2 1/2SM -RA SCT007 BKN070 OVC080 04/03 A2998 RMK AO2 T00360027
KANQ 
18nm S 
211355Z AUTO 17008G13KT 5SM BR FEW011 FEW050 BKN085 05/04 A2997 RMK AO2
TAF
KBTL 
25nm NW 
211140Z 2112/2212 17012KT P6SM -SHRA OVC100 WS020/21035KT FM211400 18015G22KT 5SM -SHRA BR OVC060 WS020/21045KT FM211800 20019G27KT 5SM -SHRA BR OVC010 WS020/21050KT FM212300 24017G25KT P6SM OVC010 WS020/23050KT FM220300 27015G23KT P6SM OVC015 FM220600 30014KT P6SM OVC015
KJXN 
30nm NE 
211140Z 2112/2212 16010KT P6SM VCSH OVC100 FM211500 18013KT 5SM BR OVC035 WS020/20050KT FM211800 18015G23KT 5SM -SHRA BR OVC019 WS020/21055KT FM212000 22015G23KT 5SM -SHRA BR OVC010 WS020/21055KT FM220100 26014G22KT 5SM BR OVC010 WS020/21055KT FM220500 28012G19KT P6SM OVC015
KAZO 
31nm NW 
211140Z 2112/2212 17012KT P6SM -SHRA OVC100 WS020/21040KT FM211400 19015G22KT 3SM -SHRA BR OVC019 WS020/21050KT FM211900 21017G25KT 3SM -SHRA BR OVC009 WS020/22050KT FM212300 24015G23KT 5SM BR OVC010 WS015/24035KT FM220300 29015G22KT P6SM OVC015 FM220600 31012KT P6SM OVC015
NOTAMs
Click for the latest NOTAMs
NOTAMs are issued by the DoD/FAA and will open in a separate window not controlled by AirNav.

 

 
 

Would you like to see your business listed on this page?

 If your business provides an interesting product or service to pilots, flight crews, aircraft, or users of the Community Health Center of Branch County Heliport, you should consider listing it here.  To start the listing process, click on the button below
 
Add a business
 

Other Pages about Community Health Center of Branch County Heliport

Update a link
 
Copyright © AirNav, LLC. All rights reserved. Privacy Policy  Contact